Time;durP1;ratioP1;P1;durP2;ratioP2;P2;SDS_P1;SDS_P2;PMS_P1;PMS_P2;Temp;Humidity;BMP_temperature;BMP_pressure;BME280_temperature;BME280_humidity;BME280_pressure;Samples;Min_cycle;Max_cycle;Signal;HPM_P1;HPM_P2
2021/04/28 00:00:15;;;;;;;;;8.25;8.00;;;;;;;;3559731;39;111853;-72
2021/04/28 00:02:41;;;;;;;;;9.25;8.25;;;;;;;;3558642;39;114154;-72
2021/04/28 00:05:08;;;;;;;;;8.25;8.00;;;;;;;;3559591;39;113960;-73
2021/04/28 00:07:34;;;;;;;;;6.25;5.75;;;;;;;;3558458;39;111728;-72
2021/04/28 00:10:00;;;;;;;;;9.00;9.00;;;;;;;;3559408;39;113146;-74
2021/04/28 00:12:27;;;;;;;;;8.00;8.00;;;;;;;;3557898;39;114748;-73
2021/04/28 00:14:53;;;;;;;;;9.25;8.00;;;;;;;;3559407;39;112471;-71
2021/04/28 00:17:19;;;;;;;;;11.00;8.50;;;;;;;;3561431;39;113305;-73
2021/04/28 00:19:45;;;;;;;;;9.75;9.75;;;;;;;;3558835;39;112115;-74
2021/04/28 00:22:11;;;;;;;;;11.50;9.00;;;;;;;;3559528;39;114105;-73
2021/04/28 00:24:38;;;;;;;;;9.75;8.75;;;;;;;;3557626;39;114643;-73
2021/04/28 00:27:04;;;;;;;;;7.50;7.50;;;;;;;;3560125;39;111977;-73
2021/04/28 00:29:32;;;;;;;;;8.00;7.50;;;;;;;;3558280;39;113326;-73
2021/04/28 00:31:58;;;;;;;;;7.50;7.50;;;;;;;;3553263;39;113360;-72
2021/04/28 00:34:24;;;;;;;;;7.25;7.25;;;;;;;;3559344;39;111893;-73
2021/04/28 00:36:50;;;;;;;;;7.00;7.00;;;;;;;;3558711;39;113324;-75
2021/04/28 00:39:16;;;;;;;;;8.50;5.00;;;;;;;;3560389;39;114089;-75
2021/04/28 00:41:42;;;;;;;;;7.25;7.25;;;;;;;;3558591;39;113435;-73
2021/04/28 00:44:08;;;;;;;;;6.00;6.00;;;;;;;;3559181;39;113831;-77
2021/04/28 00:46:35;;;;;;;;;9.00;6.50;;;;;;;;3558323;39;111912;-76
2021/04/28 00:49:02;;;;;;;;;8.25;8.25;;;;;;;;3555969;39;113756;-77
2021/04/28 00:51:28;;;;;;;;;7.25;7.00;;;;;;;;3559029;39;114186;-76
2021/04/28 00:53:54;;;;;;;;;9.00;9.00;;;;;;;;3558346;39;111907;-77
2021/04/28 00:56:20;;;;;;;;;7.75;7.75;;;;;;;;3558985;39;113867;-77
2021/04/28 00:58:46;;;;;;;;;5.00;5.00;;;;;;;;3556772;39;114253;-76
2021/04/28 01:01:12;;;;;;;;;6.25;6.00;;;;;;;;3562858;39;111926;-77
2021/04/28 01:03:40;;;;;;;;;8.00;7.00;;;;;;;;3557970;39;114459;-76
2021/04/28 01:06:07;;;;;;;;;11.00;10.50;;;;;;;;3560371;39;111916;-77
2021/04/28 01:08:34;;;;;;;;;9.75;8.75;;;;;;;;3556262;39;113351;-75
2021/04/28 01:11:00;;;;;;;;;9.00;9.00;;;;;;;;3558962;39;114040;-77
2021/04/28 01:13:26;;;;;;;;;13.50;10.00;;;;;;;;3558272;39;113355;-77
2021/04/28 01:15:53;;;;;;;;;7.25;7.25;;;;;;;;3558965;39;113340;-78
2021/04/28 01:18:23;;;;;;;;;10.75;9.50;;;;;;;;3558398;39;113824;-78
2021/04/28 01:20:51;;;;;;;;;9.25;8.75;;;;;;;;3561369;39;111912;-77
2021/04/28 01:23:18;;;;;;;;;10.00;10.00;;;;;;;;3558146;39;114101;-77
2021/04/28 01:25:44;;;;;;;;;7.75;7.25;;;;;;;;3558381;39;111829;-78
2021/04/28 01:28:12;;;;;;;;;11.00;11.00;;;;;;;;3559093;39;113374;-78
2021/04/28 01:30:39;;;;;;;;;9.00;8.25;;;;;;;;3557564;39;113879;-77
2021/04/28 01:33:07;;;;;;;;;11.25;10.25;;;;;;;;3557358;39;112956;-78
2021/04/28 01:35:36;;;;;;;;;16.00;11.00;;;;;;;;3555845;39;113325;-77
2021/04/28 01:38:02;;;;;;;;;11.25;10.25;;;;;;;;3554984;39;113849;-78
2021/04/28 01:40:29;;;;;;;;;9.00;8.00;;;;;;;;3559335;39;112011;-78
2021/04/28 01:42:55;;;;;;;;;11.50;10.00;;;;;;;;3560087;39;113554;-78
2021/04/28 01:45:22;;;;;;;;;10.00;9.00;;;;;;;;3558616;39;112499;-78
2021/04/28 01:47:48;;;;;;;;;9.25;8.25;;;;;;;;3558319;39;113541;-78
2021/04/28 01:50:16;;;;;;;;;12.25;9.00;;;;;;;;3558355;39;114147;-76
2021/04/28 01:52:43;;;;;;;;;9.50;9.50;;;;;;;;3560103;39;111923;-76
2021/04/28 01:55:10;;;;;;;;;10.50;10.50;;;;;;;;3559224;39;114093;-77
2021/04/28 01:57:37;;;;;;;;;11.00;8.00;;;;;;;;3560061;39;114242;-76
2021/04/28 02:00:05;;;;;;;;;8.50;8.50;;;;;;;;3558935;39;112285;-78
2021/04/28 02:02:32;;;;;;;;;7.25;7.25;;;;;;;;3557101;39;113640;-78
2021/04/28 02:04:58;;;;;;;;;11.00;9.25;;;;;;;;3562531;39;114027;-77
2021/04/28 02:07:24;;;;;;;;;8.00;8.00;;;;;;;;3559285;39;113414;-77
2021/04/28 02:09:50;;;;;;;;;8.75;7.25;;;;;;;;3559401;39;114216;-77
2021/04/28 02:12:16;;;;;;;;;6.50;6.50;;;;;;;;3559895;39;111874;-77
2021/04/28 02:14:43;;;;;;;;;7.75;5.75;;;;;;;;3559409;39;114293;-78
2021/04/28 02:17:10;;;;;;;;;7.75;7.75;;;;;;;;3559827;39;114530;-77
2021/04/28 02:19:38;;;;;;;;;8.00;7.25;;;;;;;;3558898;39;111833;-78
2021/04/28 02:22:04;;;;;;;;;8.50;8.00;;;;;;;;3560862;39;113546;-78
2021/04/28 02:24:30;;;;;;;;;8.00;4.00;;;;;;;;3555974;39;114564;-78
2021/04/28 02:26:57;;;;;;;;;9.00;6.50;;;;;;;;3561717;39;111938;-76
2021/04/28 02:29:23;;;;;;;;;4.00;3.75;;;;;;;;3559689;39;114572;-76
2021/04/28 02:31:50;;;;;;;;;8.00;7.50;;;;;;;;3559343;39;112540;-76
2021/04/28 02:34:16;;;;;;;;;7.00;7.00;;;;;;;;3559731;39;113502;-77
2021/04/28 02:36:45;;;;;;;;;4.00;4.00;;;;;;;;3560751;39;113878;-77
2021/04/28 02:39:12;;;;;;;;;5.50;5.00;;;;;;;;3561027;39;111983;-78
2021/04/28 02:41:39;;;;;;;;;8.00;6.50;;;;;;;;3562155;39;113314;-78
2021/04/28 02:44:06;;;;;;;;;7.00;7.00;;;;;;;;3560791;39;114416;-78
2021/04/28 02:46:33;;;;;;;;;8.25;6.75;;;;;;;;3562876;39;112321;-78
2021/04/28 02:49:01;;;;;;;;;5.00;5.00;;;;;;;;3562939;39;114695;-77
2021/04/28 02:51:28;;;;;;;;;8.75;7.00;;;;;;;;3561199;39;112260;-76
2021/04/28 02:53:54;;;;;;;;;1.50;1.50;;;;;;;;3558853;39;113703;-77
2021/04/28 02:56:20;;;;;;;;;5.25;4.00;;;;;;;;3560661;39;113906;-77
2021/04/28 02:58:47;;;;;;;;;4.00;4.00;;;;;;;;3559541;39;111823;-77
2021/04/28 03:01:13;;;;;;;;;5.00;5.00;;;;;;;;3559942;39;113215;-76
2021/04/28 03:03:40;;;;;;;;;8.00;5.00;;;;;;;;3558349;39;113732;-77
2021/04/28 03:06:09;;;;;;;;;6.50;5.00;;;;;;;;3560153;39;112709;-77
2021/04/28 03:08:36;;;;;;;;;5.00;5.00;;;;;;;;3558911;39;113371;-78
2021/04/28 03:11:02;;;;;;;;;4.25;4.25;;;;;;;;3562785;39;114036;-78
2021/04/28 03:13:28;;;;;;;;;4.00;4.00;;;;;;;;3558929;39;113840;-77
2021/04/28 03:15:54;;;;;;;;;4.50;4.00;;;;;;;;3559428;39;113915;-77
2021/04/28 03:18:21;;;;;;;;;4.00;4.00;;;;;;;;3559399;39;112735;-77
2021/04/28 03:20:48;;;;;;;;;7.50;4.00;;;;;;;;3559478;39;113325;-78
2021/04/28 03:23:15;;;;;;;;;6.00;4.50;;;;;;;;3559334;39;114308;-77
2021/04/28 03:25:42;;;;;;;;;8.50;5.00;;;;;;;;3559355;39;111858;-78
2021/04/28 03:28:08;;;;;;;;;3.00;3.00;;;;;;;;3559990;39;113511;-78
2021/04/28 03:54:58;;;;;;;;;4.00;4.00;;;;;;;;3559416;39;112398;-77
2021/04/28 03:57:24;;;;;;;;;6.50;6.00;;;;;;;;3562997;39;113208;-78
2021/04/28 03:59:50;;;;;;;;;6.50;4.75;;;;;;;;3563563;39;113997;-77
2021/04/28 04:02:16;;;;;;;;;4.75;4.75;;;;;;;;3561173;39;112019;-77
2021/04/28 04:04:42;;;;;;;;;4.00;4.00;;;;;;;;3558896;39;113575;-78
2021/04/28 04:07:08;;;;;;;;;6.00;5.00;;;;;;;;3559296;39;114410;-79
2021/04/28 04:09:34;;;;;;;;;4.00;4.00;;;;;;;;3559531;39;111914;-78
2021/04/28 04:12:01;;;;;;;;;7.00;7.00;;;;;;;;3552838;39;111813;-78
2021/04/28 04:14:27;;;;;;;;;7.75;7.75;;;;;;;;3558366;39;114333;-77
2021/04/28 04:16:53;;;;;;;;;5.00;5.00;;;;;;;;3559773;39;112501;-78
2021/04/28 04:19:19;;;;;;;;;5.00;4.50;;;;;;;;3560520;39;113520;-80
2021/04/28 04:21:45;;;;;;;;;4.50;4.50;;;;;;;;3560081;39;112001;-78
2021/04/28 04:24:12;;;;;;;;;5.00;4.00;;;;;;;;3558401;39;112186;-76
2021/04/28 04:26:38;;;;;;;;;4.25;4.25;;;;;;;;3558941;39;113981;-75
2021/04/28 04:29:05;;;;;;;;;4.25;4.25;;;;;;;;3557868;39;112547;-75
2021/04/28 04:31:31;;;;;;;;;6.50;6.50;;;;;;;;3559817;39;113701;-77
2021/04/28 04:33:58;;;;;;;;;7.00;6.00;;;;;;;;3561700;39;114192;-77
2021/04/28 04:36:24;;;;;;;;;5.50;5.00;;;;;;;;3562122;39;112081;-76
2021/04/28 04:38:50;;;;;;;;;4.00;3.50;;;;;;;;3559744;39;113423;-78
2021/04/28 04:41:16;;;;;;;;;1.00;1.00;;;;;;;;3560880;39;113688;-78
2021/04/28 04:43:42;;;;;;;;;7.25;6.50;;;;;;;;3559677;39;113296;-78
2021/04/28 04:46:09;;;;;;;;;5.00;5.00;;;;;;;;3558424;39;114394;-77
2021/04/28 04:48:36;;;;;;;;;4.25;4.25;;;;;;;;3559152;39;111869;-77
2021/04/28 04:51:02;;;;;;;;;4.00;4.00;;;;;;;;3559319;39;113744;-77
2021/04/28 04:53:29;;;;;;;;;6.00;6.00;;;;;;;;3558213;39;113922;-77
2021/04/28 04:55:55;;;;;;;;;7.00;7.00;;;;;;;;3560116;39;112373;-77
2021/04/28 04:58:21;;;;;;;;;7.00;7.00;;;;;;;;3555930;39;113790;-78
2021/04/28 05:00:47;;;;;;;;;5.00;5.00;;;;;;;;3555474;39;114420;-76
2021/04/28 05:03:14;;;;;;;;;5.00;4.50;;;;;;;;3561247;39;113770;-76
2021/04/28 05:05:40;;;;;;;;;7.50;7.50;;;;;;;;3558862;39;114284;-76
2021/04/28 05:08:06;;;;;;;;;7.50;7.00;;;;;;;;3559001;39;111887;-72
2021/04/28 05:10:32;;;;;;;;;8.00;7.00;;;;;;;;3558803;39;113407;-72
2021/04/28 05:12:58;;;;;;;;;11.00;10.00;;;;;;;;3557616;39;114475;-72
2021/04/28 05:15:24;;;;;;;;;9.75;9.00;;;;;;;;3558968;39;111879;-72
2021/04/28 05:17:50;;;;;;;;;9.50;7.00;;;;;;;;3556281;39;112699;-74
2021/04/28 05:20:17;;;;;;;;;13.75;12.25;;;;;;;;3558924;39;114324;-76
2021/04/28 05:22:43;;;;;;;;;10.50;9.50;;;;;;;;3557915;39;112366;-75
2021/04/28 05:25:12;;;;;;;;;9.50;9.00;;;;;;;;3561713;39;113293;-75
2021/04/28 05:27:38;;;;;;;;;11.50;10.50;;;;;;;;3557409;39;112664;-75
2021/04/28 05:30:04;;;;;;;;;9.00;9.00;;;;;;;;3559550;39;113341;-74
2021/04/28 05:32:30;;;;;;;;;7.75;5.50;;;;;;;;3557245;39;114924;-75
2021/04/28 05:34:56;;;;;;;;;8.00;8.00;;;;;;;;3558655;39;112253;-75
2021/04/28 05:37:23;;;;;;;;;11.50;10.00;;;;;;;;3557817;39;113276;-75
2021/04/28 05:39:49;;;;;;;;;8.00;8.00;;;;;;;;3556141;39;114024;-75
2021/04/28 05:42:17;;;;;;;;;7.00;7.00;;;;;;;;3559562;39;112402;-74
2021/04/28 05:44:43;;;;;;;;;9.00;8.00;;;;;;;;3560913;39;113389;-74
2021/04/28 05:47:09;;;;;;;;;10.25;10.00;;;;;;;;3558885;39;111795;-75
2021/04/28 05:49:35;;;;;;;;;9.75;7.25;;;;;;;;3559313;39;113600;-73
2021/04/28 05:52:02;;;;;;;;;10.00;8.50;;;;;;;;3558482;39;114074;-75
2021/04/28 05:54:29;;;;;;;;;8.25;8.25;;;;;;;;3557987;39;113121;-73
2021/04/28 05:56:55;;;;;;;;;9.75;9.00;;;;;;;;3556017;39;113590;-76
2021/04/28 05:59:21;;;;;;;;;9.25;7.50;;;;;;;;3558911;39;113968;-72
2021/04/28 06:01:47;;;;;;;;;9.00;8.00;;;;;;;;3558209;39;111889;-71
2021/04/28 06:04:13;;;;;;;;;8.50;8.50;;;;;;;;3558253;39;113137;-71
2021/04/28 06:06:39;;;;;;;;;9.75;8.00;;;;;;;;3560721;39;114373;-75
2021/04/28 06:09:05;;;;;;;;;10.25;8.75;;;;;;;;3557653;39;113157;-77
2021/04/28 06:11:32;;;;;;;;;11.00;10.00;;;;;;;;3559167;39;114146;-73
2021/04/28 06:13:58;;;;;;;;;8.00;8.00;;;;;;;;3558805;39;112461;-77
2021/04/28 06:16:24;;;;;;;;;10.00;9.00;;;;;;;;3560337;39;113396;-71
2021/04/28 06:18:50;;;;;;;;;12.25;10.75;;;;;;;;3558080;39;114168;-71
2021/04/28 06:21:16;;;;;;;;;20.50;18.25;;;;;;;;3560055;39;112211;-71
2021/04/28 06:23:42;;;;;;;;;23.25;22.25;;;;;;;;3558787;39;113153;-71
2021/04/28 06:26:09;;;;;;;;;22.00;19.00;;;;;;;;3559064;39;113853;-72
2021/04/28 06:28:35;;;;;;;;;24.50;22.25;;;;;;;;3562212;39;111903;-72
2021/04/28 06:31:02;;;;;;;;;50.00;42.33;;;;;;;;3558757;39;114066;-72
2021/04/28 06:33:28;;;;;;;;;55.67;47.33;;;;;;;;3560134;39;111937;-71
2021/04/28 06:35:54;;;;;;;;;29.67;23.00;;;;;;;;3558349;39;113217;-68
2021/04/28 06:38:20;;;;;;;;;33.25;30.00;;;;;;;;3559810;39;114034;-73
2021/04/28 06:40:46;;;;;;;;;43.33;38.00;;;;;;;;3558629;39;113317;-73
2021/04/28 06:43:12;;;;;;;;;28.25;26.50;;;;;;;;3559808;39;113270;-72
2021/04/28 06:45:39;;;;;;;;;29.00;28.25;;;;;;;;3558460;39;114071;-75
2021/04/28 06:48:06;;;;;;;;;26.50;26.50;;;;;;;;3558631;39;112155;-72
2021/04/28 06:50:32;;;;;;;;;20.75;19.50;;;;;;;;3561035;39;113549;-72
2021/04/28 06:52:58;;;;;;;;;17.75;17.00;;;;;;;;3551349;39;113016;-73
2021/04/28 06:55:25;;;;;;;;;12.25;12.25;;;;;;;;3557449;39;113897;-72
2021/04/28 06:57:55;;;;;;;;;12.25;11.00;;;;;;;;3558877;39;114425;-73
2021/04/28 07:00:22;;;;;;;;;9.75;9.75;;;;;;;;3555502;39;111816;-73
2021/04/28 07:02:48;;;;;;;;;11.25;10.25;;;;;;;;3559219;39;113646;-72
2021/04/28 07:05:15;;;;;;;;;12.00;10.00;;;;;;;;3557283;39;114202;-71
2021/04/28 07:07:41;;;;;;;;;12.00;9.50;;;;;;;;3559061;39;111804;-72
2021/04/28 07:10:11;;;;;;;;;13.00;13.00;;;;;;;;3558340;39;113311;-71
2021/04/28 07:12:37;;;;;;;;;10.00;9.25;;;;;;;;3560428;39;113861;-71
2021/04/28 07:15:03;;;;;;;;;15.75;14.75;;;;;;;;3558487;39;113283;-72
2021/04/28 07:17:29;;;;;;;;;11.50;11.00;;;;;;;;3557304;39;113837;-71
2021/04/28 07:19:56;;;;;;;;;8.25;7.50;;;;;;;;3559250;39;111959;-71
2021/04/28 07:22:22;;;;;;;;;10.25;10.25;;;;;;;;3557458;39;114006;-71
2021/04/28 07:24:49;;;;;;;;;15.75;11.00;;;;;;;;3556976;39;114289;-71
2021/04/28 07:27:15;;;;;;;;;9.75;8.75;;;;;;;;3558321;39;111965;-70
2021/04/28 07:29:41;;;;;;;;;12.25;12.00;;;;;;;;3557793;39;113453;-68
2021/04/28 07:32:08;;;;;;;;;16.00;14.75;;;;;;;;3557929;39;114013;-71
2021/04/28 07:34:34;;;;;;;;;13.25;13.25;;;;;;;;3561006;39;113144;-70
2021/04/28 07:37:00;;;;;;;;;21.75;18.50;;;;;;;;3557103;39;113831;-66
2021/04/28 07:39:26;;;;;;;;;16.00;15.00;;;;;;;;3557140;39;111829;-67
2021/04/28 07:41:52;;;;;;;;;17.00;16.50;;;;;;;;3556031;39;112655;-69
2021/04/28 07:44:18;;;;;;;;;15.75;15.25;;;;;;;;3555006;39;113947;-69
2021/04/28 07:46:45;;;;;;;;;19.75;15.75;;;;;;;;3558367;39;112297;-68
2021/04/28 07:49:11;;;;;;;;;14.25;12.25;;;;;;;;3557256;39;113280;-69
2021/04/28 07:51:37;;;;;;;;;13.50;12.50;;;;;;;;3557707;39;114404;-68
2021/04/28 07:54:05;;;;;;;;;15.75;12.50;;;;;;;;3560555;39;112321;-71
2021/04/28 07:56:31;;;;;;;;;10.75;9.75;;;;;;;;3557231;39;114402;-67
2021/04/28 07:58:57;;;;;;;;;11.00;10.50;;;;;;;;3558648;39;112225;-67
2021/04/28 08:01:23;;;;;;;;;11.00;11.00;;;;;;;;3555204;39;113432;-68
2021/04/28 08:03:49;;;;;;;;;13.75;10.50;;;;;;;;3555104;39;114244;-67
2021/04/28 08:06:15;;;;;;;;;15.50;11.00;;;;;;;;3556900;39;112098;-67
2021/04/28 08:08:41;;;;;;;;;14.00;12.00;;;;;;;;3556232;39;113704;-66
2021/04/28 08:11:08;;;;;;;;;15.00;11.25;;;;;;;;3554885;39;113958;-68
2021/04/28 08:13:34;;;;;;;;;17.25;13.00;;;;;;;;3561866;39;111928;-67
2021/04/28 08:16:00;;;;;;;;;15.25;14.50;;;;;;;;3558149;39;113263;-68
2021/04/28 08:18:27;;;;;;;;;11.25;11.25;;;;;;;;3557460;39;111871;-68
2021/04/28 08:20:54;;;;;;;;;14.00;12.75;;;;;;;;3556560;39;113332;-69
2021/04/28 08:23:20;;;;;;;;;14.50;13.75;;;;;;;;3553296;39;113977;-67
2021/04/28 08:25:46;;;;;;;;;12.75;12.00;;;;;;;;3558244;39;111946;-72
2021/04/28 08:28:14;;;;;;;;;17.25;15.75;;;;;;;;3557408;39;113694;-70
2021/04/28 08:30:41;;;;;;;;;16.50;14.75;;;;;;;;3557906;39;114430;-68
2021/04/28 08:33:07;;;;;;;;;14.25;10.75;;;;;;;;3557667;39;113473;-68
2021/04/28 08:35:33;;;;;;;;;17.00;15.25;;;;;;;;3557777;39;113717;-70
2021/04/28 08:37:59;;;;;;;;;14.25;13.50;;;;;;;;3559275;39;114174;-72
2021/04/28 08:40:25;;;;;;;;;16.00;14.25;;;;;;;;3558368;39;114330;-75
2021/04/28 08:42:51;;;;;;;;;17.25;15.75;;;;;;;;3556864;39;113673;-74
2021/04/28 08:45:18;;;;;;;;;15.00;14.50;;;;;;;;3558820;39;112264;-75
2021/04/28 08:47:46;;;;;;;;;12.00;11.00;;;;;;;;3555368;39;112779;-73
2021/04/28 08:50:13;;;;;;;;;16.00;14.00;;;;;;;;3551754;39;114291;-74
2021/04/28 08:52:39;;;;;;;;;17.25;13.25;;;;;;;;3557800;39;112130;-74
2021/04/28 08:55:07;;;;;;;;;14.25;13.25;;;;;;;;3554121;39;112249;-74
2021/04/28 08:57:33;;;;;;;;;16.50;16.50;;;;;;;;3556657;39;113420;-73
2021/04/28 08:59:59;;;;;;;;;14.75;13.75;;;;;;;;3560389;39;112606;-74
2021/04/28 09:02:27;;;;;;;;;17.25;16.00;;;;;;;;3558040;39;114064;-74
2021/04/28 09:05:07;;;;;;;;;12.50;12.50;;;;;;;;3556002;39;111857;-74
2021/04/28 09:07:35;;;;;;;;;12.50;11.25;;;;;;;;3554416;39;113894;-74
2021/04/28 09:10:03;;;;;;;;;14.75;13.00;;;;;;;;3552653;39;113810;-75
2021/04/28 09:12:32;;;;;;;;;14.75;13.00;;;;;;;;3558037;39;112055;-75
2021/04/28 09:14:59;;;;;;;;;13.50;12.00;;;;;;;;3558371;39;113251;-73
2021/04/28 09:17:26;;;;;;;;;10.75;10.75;;;;;;;;3556276;39;113904;-73
2021/04/28 09:20:12;;;;;;;;;13.25;12.00;;;;;;;;3557066;39;113438;-73
2021/04/28 09:22:38;;;;;;;;;10.00;9.25;;;;;;;;3559778;39;113435;-73
2021/04/28 09:25:05;;;;;;;;;14.25;10.75;;;;;;;;3555952;39;112401;-74
2021/04/28 09:27:33;;;;;;;;;12.75;10.75;;;;;;;;3558380;39;113317;-72
2021/04/28 09:29:59;;;;;;;;;11.00;11.00;;;;;;;;3556862;39;113912;-74
2021/04/28 09:32:31;;;;;;;;;11.00;9.75;;;;;;;;3558164;39;112989;-72
2021/04/28 09:35:11;;;;;;;;;10.00;10.00;;;;;;;;3557383;39;113403;-73
2021/04/28 09:37:49;;;;;;;;;6.25;5.50;;;;;;;;3555407;39;113021;-74
2021/04/28 09:40:15;;;;;;;;;8.50;6.25;;;;;;;;3558172;39;111902;-74
2021/04/28 09:42:50;;;;;;;;;6.00;5.75;;;;;;;;3557304;39;113744;-74
2021/04/28 09:45:36;;;;;;;;;5.75;5.00;;;;;;;;3554681;39;113182;-74
2021/04/28 09:48:03;;;;;;;;;5.75;2.50;;;;;;;;3551696;39;113418;-75
2021/04/28 09:50:29;;;;;;;;;5.00;3.00;;;;;;;;3553284;39;114257;-76
2021/04/28 09:52:55;;;;;;;;;5.25;5.00;;;;;;;;3553657;39;111998;-75
2021/04/28 09:55:22;;;;;;;;;2.00;2.00;;;;;;;;3552719;39;113276;-77
2021/04/28 09:57:49;;;;;;;;;5.00;5.00;;;;;;;;3551779;39;113909;-75
2021/04/28 10:00:17;;;;;;;;;5.00;4.00;;;;;;;;3552744;39;112464;-77
2021/04/28 10:02:43;;;;;;;;;5.00;5.00;;;;;;;;3554266;39;113591;-77
2021/04/28 10:05:17;;;;;;;;;5.00;5.00;;;;;;;;3555657;39;114033;-76
2021/04/28 10:07:43;;;;;;;;;8.00;5.00;;;;;;;;3552835;39;113687;-75
2021/04/28 10:10:10;;;;;;;;;7.50;7.00;;;;;;;;3553012;39;114266;-76
2021/04/28 10:12:36;;;;;;;;;4.25;3.00;;;;;;;;3554687;39;112860;-79
2021/04/28 10:15:03;;;;;;;;;3.00;3.00;;;;;;;;3554235;39;113739;-75
2021/04/28 10:17:30;;;;;;;;;2.00;2.00;;;;;;;;3557410;39;114106;-78
2021/04/28 10:19:57;;;;;;;;;4.00;4.00;;;;;;;;3558293;39;111896;-77
2021/04/28 10:22:25;;;;;;;;;3.00;1.75;;;;;;;;3559300;39;113406;-75
2021/04/28 10:24:53;;;;;;;;;6.00;4.00;;;;;;;;3557192;39;114196;-73
2021/04/28 10:27:19;;;;;;;;;3.75;2.00;;;;;;;;3558012;39;112257;-72
2021/04/28 10:29:46;;;;;;;;;2.00;2.00;;;;;;;;3558999;39;113916;-74
2021/04/28 10:32:12;;;;;;;;;5.25;2.00;;;;;;;;3558387;39;112861;-73
2021/04/28 10:34:41;;;;;;;;;1.25;1.25;;;;;;;;3558963;39;113539;-74
2021/04/28 10:37:08;;;;;;;;;2.00;2.00;;;;;;;;3556973;39;113820;-73
2021/04/28 10:39:35;;;;;;;;;2.00;1.25;;;;;;;;3558852;39;111901;-73
2021/04/28 10:42:01;;;;;;;;;1.00;1.00;;;;;;;;3555688;39;113515;-73
2021/04/28 10:44:41;;;;;;;;;6.00;3.00;;;;;;;;3557696;39;114148;-73
2021/04/28 10:47:24;;;;;;;;;6.75;5.50;;;;;;;;3558097;39;112177;-74
2021/04/28 10:50:15;;;;;;;;;11.00;6.75;;;;;;;;3558240;39;113895;-73
2021/04/28 10:52:42;;;;;;;;;5.00;3.00;;;;;;;;3553421;39;112144;-75
2021/04/28 10:55:36;;;;;;;;;5.25;3.00;;;;;;;;3558094;39;113241;-73
2021/04/28 10:58:02;;;;;;;;;3.50;3.50;;;;;;;;3556695;39;114070;-75
2021/04/28 11:00:28;;;;;;;;;2.00;2.00;;;;;;;;3559101;39;112007;-74
2021/04/28 11:02:55;;;;;;;;;5.00;5.00;;;;;;;;3557962;39;112844;-74
2021/04/28 11:05:24;;;;;;;;;5.00;5.00;;;;;;;;3558494;39;114564;-75
2021/04/28 11:07:55;;;;;;;;;5.75;5.75;;;;;;;;3557908;39;111800;-75
2021/04/28 11:10:27;;;;;;;;;6.00;6.00;;;;;;;;3555658;39;113465;-74
2021/04/28 11:13:03;;;;;;;;;7.00;5.50;;;;;;;;3558498;39;114002;-78
2021/04/28 11:15:58;;;;;;;;;7.00;7.00;;;;;;;;3559082;39;113595;-77
2021/04/28 11:18:28;;;;;;;;;6.00;6.00;;;;;;;;3544426;39;115169;-77
2021/04/28 11:21:09;;;;;;;;;6.50;4.75;;;;;;;;3557286;39;112426;-76
2021/04/28 11:23:36;;;;;;;;;6.00;5.75;;;;;;;;3558218;39;113751;-75
2021/04/28 11:26:20;;;;;;;;;6.25;6.25;;;;;;;;3555110;39;114152;-77
2021/04/28 11:28:49;;;;;;;;;6.00;6.00;;;;;;;;3555619;39;112241;-78
2021/04/28 11:31:21;;;;;;;;;9.00;5.00;;;;;;;;3558760;39;113651;-78
2021/04/28 11:33:47;;;;;;;;;6.75;5.50;;;;;;;;3555545;39;114104;-78
2021/04/28 11:36:16;;;;;;;;;10.00;7.00;;;;;;;;3561573;39;112028;-78
2021/04/28 11:38:44;;;;;;;;;7.00;5.50;;;;;;;;3557321;39;114751;-83
2021/04/28 11:41:11;;;;;;;;;6.00;6.00;;;;;;;;3558988;39;111899;-77
2021/04/28 11:43:38;;;;;;;;;7.00;6.00;;;;;;;;3558331;39;113307;-80
2021/04/28 11:46:07;;;;;;;;;7.00;7.00;;;;;;;;3557784;39;114053;-80
2021/04/28 11:48:35;;;;;;;;;5.75;5.75;;;;;;;;3558662;39;111854;-82
2021/04/28 11:51:02;;;;;;;;;7.25;6.25;;;;;;;;3558250;39;113365;-74
2021/04/28 11:53:29;;;;;;;;;8.50;8.00;;;;;;;;3558214;39;114194;-73
2021/04/28 11:55:56;;;;;;;;;6.00;6.00;;;;;;;;3558491;39;112993;-74
2021/04/28 11:58:23;;;;;;;;;6.00;5.25;;;;;;;;3556541;39;114027;-73
2021/04/28 12:00:50;;;;;;;;;7.00;5.25;;;;;;;;3555783;39;111864;-75
2021/04/28 12:03:17;;;;;;;;;6.00;6.00;;;;;;;;3554878;39;113726;-73
2021/04/28 12:05:43;;;;;;;;;6.75;6.25;;;;;;;;3555652;39;113993;-75
2021/04/28 12:08:09;;;;;;;;;5.25;5.25;;;;;;;;3556669;39;112442;-74
2021/04/28 12:10:36;;;;;;;;;6.00;6.00;;;;;;;;3556687;39;113507;-74
2021/04/28 12:13:11;;;;;;;;;7.00;5.00;;;;;;;;3555896;39;114030;-72
2021/04/28 12:15:37;;;;;;;;;5.00;3.00;;;;;;;;3555599;39;113468;-73
2021/04/28 12:18:03;;;;;;;;;5.75;4.50;;;;;;;;3558447;39;113238;-72
2021/04/28 12:20:30;;;;;;;;;8.00;4.00;;;;;;;;3556422;39;112053;-73
2021/04/28 12:22:58;;;;;;;;;5.25;5.25;;;;;;;;3556336;39;113246;-74
2021/04/28 12:25:24;;;;;;;;;5.75;5.75;;;;;;;;3555695;39;114057;-72
2021/04/28 12:27:51;;;;;;;;;5.25;5.00;;;;;;;;3556120;39;111994;-73
2021/04/28 12:30:19;;;;;;;;;4.00;4.00;;;;;;;;3554559;39;113390;-73
2021/04/28 12:32:46;;;;;;;;;5.25;3.00;;;;;;;;3555258;39;113914;-73
2021/04/28 12:35:14;;;;;;;;;5.50;5.00;;;;;;;;3556165;39;112073;-73
2021/04/28 12:37:41;;;;;;;;;3.00;3.00;;;;;;;;3557593;39;113460;-73
2021/04/28 12:40:10;;;;;;;;;5.00;5.00;;;;;;;;3557981;39;113873;-74
2021/04/28 12:42:36;;;;;;;;;2.25;1.50;;;;;;;;3556319;39;113432;-72
2021/04/28 12:45:04;;;;;;;;;5.25;4.50;;;;;;;;3557115;39;114193;-76
2021/04/28 12:47:31;;;;;;;;;5.25;5.25;;;;;;;;3558277;39;111922;-73
2021/04/28 12:50:18;;;;;;;;;10.25;7.00;;;;;;;;3557488;39;113207;-75
2021/04/28 12:52:45;;;;;;;;;5.25;4.00;;;;;;;;3552886;39;113758;-73
2021/04/28 12:55:33;;;;;;;;;6.00;6.00;;;;;;;;3558378;39;112112;-76
2021/04/28 12:58:00;;;;;;;;;12.00;10.25;;;;;;;;3556780;39;113317;-74
2021/04/28 13:00:29;;;;;;;;;5.00;5.00;;;;;;;;3557058;39;114237;-74
2021/04/28 13:03:08;;;;;;;;;5.00;5.00;;;;;;;;3562858;39;112107;-74
2021/04/28 13:05:34;;;;;;;;;6.00;5.00;;;;;;;;3559963;39;113792;-75
2021/04/28 13:08:21;;;;;;;;;7.00;5.50;;;;;;;;3561143;39;112239;-74
2021/04/28 13:11:11;;;;;;;;;3.50;3.50;;;;;;;;3559871;39;113569;-75
2021/04/28 13:13:38;;;;;;;;;7.75;5.75;;;;;;;;3556626;39;113784;-74
2021/04/28 13:16:04;;;;;;;;;10.25;6.75;;;;;;;;3559394;39;113326;-77
2021/04/28 13:18:47;;;;;;;;;2.75;2.75;;;;;;;;3558706;39;113253;-74
2021/04/28 13:21:23;;;;;;;;;3.00;3.00;;;;;;;;3556697;39;113912;-75
2021/04/28 13:24:13;;;;;;;;;5.25;5.00;;;;;;;;3555132;39;112723;-75
2021/04/28 13:26:42;;;;;;;;;5.00;5.00;;;;;;;;3554517;39;113201;-76
2021/04/28 13:29:09;;;;;;;;;9.75;6.75;;;;;;;;3557126;39;111912;-74
2021/04/28 13:31:39;;;;;;;;;6.75;6.00;;;;;;;;3556884;39;113283;-74
2021/04/28 13:34:05;;;;;;;;;6.00;2.00;;;;;;;;3556533;39;114148;-74
2021/04/28 13:36:33;;;;;;;;;6.75;5.75;;;;;;;;3557634;39;112157;-74
2021/04/28 13:39:01;;;;;;;;;5.25;5.00;;;;;;;;3557812;39;113231;-74
2021/04/28 13:41:27;;;;;;;;;6.25;5.00;;;;;;;;3558538;39;114021;-76
2021/04/28 13:43:54;;;;;;;;;5.25;5.25;;;;;;;;3556825;39;111982;-75
2021/04/28 13:46:22;;;;;;;;;4.50;4.50;;;;;;;;3559181;39;112872;-74
2021/04/28 13:48:48;;;;;;;;;6.00;3.00;;;;;;;;3558297;39;113875;-74
2021/04/28 13:51:14;;;;;;;;;6.75;6.00;;;;;;;;3559492;39;113413;-74
2021/04/28 13:53:40;;;;;;;;;3.00;3.00;;;;;;;;3557005;39;114513;-75
2021/04/28 13:56:06;;;;;;;;;6.00;6.00;;;;;;;;3557892;39;112439;-73
2021/04/28 13:58:33;;;;;;;;;2.75;1.00;;;;;;;;3558982;39;114098;-74
2021/04/28 14:01:00;;;;;;;;;7.00;3.00;;;;;;;;3555173;39;113130;-73
2021/04/28 14:03:26;;;;;;;;;3.00;3.00;;;;;;;;3558264;39;112972;-71
2021/04/28 14:05:52;;;;;;;;;4.75;2.75;;;;;;;;3559509;39;113559;-71
2021/04/28 14:08:19;;;;;;;;;5.75;4.00;;;;;;;;3560343;39;113965;-72
2021/04/28 14:10:45;;;;;;;;;4.25;2.00;;;;;;;;3558012;39;113352;-74
2021/04/28 14:13:11;;;;;;;;;2.75;2.75;;;;;;;;3555457;39;114064;-72
2021/04/28 14:15:37;;;;;;;;;2.25;2.25;;;;;;;;3557707;39;112279;-71
2021/04/28 14:18:04;;;;;;;;;2.00;2.00;;;;;;;;3557400;39;113207;-71
2021/04/28 14:20:30;;;;;;;;;3.75;2.75;;;;;;;;3557524;39;114351;-70
2021/04/28 14:22:56;;;;;;;;;3.00;2.00;;;;;;;;3559016;39;111915;-71
2021/04/28 14:25:22;;;;;;;;;4.00;3.50;;;;;;;;3557435;39;113761;-71
2021/04/28 14:27:48;;;;;;;;;2.25;2.00;;;;;;;;3558955;39;113992;-71
2021/04/28 14:30:15;;;;;;;;;4.00;2.50;;;;;;;;3560310;39;112136;-71
2021/04/28 14:32:42;;;;;;;;;1.00;1.00;;;;;;;;3559005;39;113910;-71
2021/04/28 14:35:09;;;;;;;;;2.25;2.00;;;;;;;;3558007;39;112462;-71
2021/04/28 14:37:35;;;;;;;;;2.00;2.00;;;;;;;;3558949;39;113194;-72
2021/04/28 14:40:01;;;;;;;;;2.75;2.25;;;;;;;;3558102;39;113995;-71
2021/04/28 14:42:27;;;;;;;;;2.75;2.75;;;;;;;;3558465;39;112156;-73
2021/04/28 14:44:53;;;;;;;;;4.50;2.00;;;;;;;;3559504;39;113248;-71
2021/04/28 14:47:19;;;;;;;;;2.50;2.00;;;;;;;;3556983;39;113797;-71
2021/04/28 14:49:45;;;;;;;;;3.50;2.00;;;;;;;;3558012;39;111982;-71